MRLM

Limón International Airport

Airport
ICAO code
MRLM
IATA Code
LIO
Summary
ICAO Region
CARSAM
ICAO Territory
Location

Limón, Limón Province

Serving
Limón
Elevation
7 ft
Coordinates
9° 57' 47" N , 83° 1' 31" W
KCC
Metar
Observation
MRLM 261600Z 04007KT 9999 FEW020 SCT120 28/24 A2995
Station
Puerto Limon
Date/Time
2023-01-26 16:00:00
Wind direction
40°
Wind speed
07 kts
Lowest cloud amount
few clouds
Temperature
28°C
Dew point
24°C
Humidity
78%
Weather condition
n/a

Limón International Airport in Limón, Costa Rica, is one of the four international airports in that country.

Climatology

Tropical rainforest climate (Köppen climate classification Af)

Runways

Designator Length Width Surface Rops
14/32 1800 30 ASP No/No

Airport map

Aerial View

SKYbrary Partners:

Safety knowledge contributed by: